DATA ZE ZPRÁV METAR

Zprávy METAR jsou pravidelné letecké meteorologické zprávy o podmínkách na daném letišti, zejména o stavu oblačnosti, viditelnosti a průběhu počasí v poslední hodině. Na letištích s pravidelným provozem jsou vydávány každých 30 minut, jinak zpravidla jednou za hodinu. Ne každé letiště (zejména komerční) poskytuje zprávy po celých 24 hodin denně. Více o zprávách METAR najdete na této stránce.

Zprávy METAR z letišť v blízkém okolí

LKPR - Praha Ruzyně, Česká republika
Směr a vzdálenost od této stanice: ZJZ 98km
Aktualizováno: 12.12.2018 22:00
Skoro jasno
Skoro jasno
 Vítr ze směru proměnlivý
Vítr: proměnlivý 4 km/h
Teplota: -2°C
Rosný bod: -3°C
Vlhkost: 93%
Tlak vzduchu: 1022 hPa
Oblačnost: Skoro jasno
Dohlednost: 7 km
Detaily oblačnosti: Skoro jasno 1097 m
2018/12/12 21:00 LKPR 122100Z VRB02KT 7000 FEW036 M02/M03 Q1022 R24/29//95 R30/39//93 NOSIG
LKTB - Brno Tuřany, Česká republika
Směr a vzdálenost od této stanice: JJV 174km
Aktualizováno: 12.12.2018 22:00
Skoro zataženo
Skoro zataženo
 Vítr ze směru SZ
Vítr: SZ 13 km/h
Teplota: -1°C
Chlad větru: -6°C
Rosný bod: -2°C
Vlhkost: 93%
Tlak vzduchu: 1021 hPa
Oblačnost: Skoro zataženo
Dohlednost: 10 km
Detaily oblačnosti: Skoro zataženo 610 m
2018/12/12 21:00 LKTB 122100Z 32007KT 9999 BKN020 M01/M02 Q1021 R27/39//95 NOSIG
 
LKKV - Karlovy Vary, Česká republika
Směr a vzdálenost od této stanice: Z 187km
Aktualizováno: 12.12.2018 22:11
Slabé sněžení, Zataženo
Slabé sněžení, Zataženo
 Vítr ze směru SV
Vítr: SV 7 km/h
Teplota: -3°C
Chlad větru: -6°C
Rosný bod: -4°C
Vlhkost: 93%
Tlak vzduchu: 1021 hPa
Stav počasí: Light Snow
Oblačnost: Zataženo
Dohlednost: 10 km
Detaily oblačnosti: Polojasno 549 m
Skoro zataženo 762 m
Zataženo 1341 m
2018/12/12 21:11 LKKV 122111Z 05004KT 9999 -SN SCT018 BKN025 OVC044 M03/M04 Q1021 R29/////// RMK REG QNH 1019
LKMT - Ostrava Mošnov, Česká republika
Směr a vzdálenost od této stanice: VJV 208km
Aktualizováno: 12.12.2018 22:00
Mlhavo, Zataženo
Mlhavo, Zataženo
 Vítr ze směru S
Vítr: S 7 km/h
Teplota: 0°C
Chlad větru: -3°C
Rosný bod: -1°C
Vlhkost: 93%
Tlak vzduchu: 1021 hPa
Stav počasí: Mlhavo
Oblačnost: Zataženo
Dohlednost: 4 km
Detaily oblačnosti: Skoro zataženo 213 m
Zataženo 853 m
2018/12/12 21:00 LKMT 122100Z 36004KT 4000 BR BKN007 OVC028 00/M01 Q1021 R04/290195 TEMPO 3000 BR
 
LKPD - Pardubice, Česká republika
Směr a vzdálenost od této stanice: JJV 56km
Aktualizováno: 12.12.2018 22:00
Skoro zataženo
Skoro zataženo
 Vítr ze směru proměnlivý
Vítr: proměnlivý 4 km/h
Teplota: 0°C
Rosný bod: -3°C
Vlhkost: 80%
Tlak vzduchu: 1022 hPa
Oblačnost: Skoro zataženo
Dohlednost: 8 km
Detaily oblačnosti: Skoro zataženo 914 m
Skoro zataženo 2134 m
2018/12/12 21:00 LKPD 122100Z VRB02KT 8000 BKN030 BKN070 M00/M03 Q1022 RMK BLU
LKKB - Praha Kbely, Česká republika
Směr a vzdálenost od této stanice: ZJZ 81km
Aktualizováno: 12.12.2018 15:08
Nejsou aktuální data
Skoro zataženo
Skoro zataženo
 Vítr ze směru SV
Vítr: SV 6 km/h
Teplota: 1°C
Rosný bod: -1°C
Vlhkost: 87%
Tlak vzduchu: 1021 hPa
Oblačnost: Skoro zataženo
Dohlednost: 10 km
Detaily oblačnosti: Skoro jasno 366 m
Skoro zataženo 610 m
Skoro zataženo 1006 m
2018/12/12 14:08 LKKB 121408Z 05003KT 330V090 9999 FEW012 BKN020 BKN033 01/M01 Q1021
 
LKCV - Čáslav, Česká republika
Směr a vzdálenost od této stanice: J 63km
Aktualizováno: 12.12.2018 13:00
Nejsou aktuální data
Sníh, Zataženo
Sníh, Zataženo
 Vítr ze směru SV
Vítr: SV 7 km/h
Teplota: 0°C
Chlad větru: -3°C
Rosný bod: 0°C
Vlhkost: 100%
Tlak vzduchu: 1020 hPa
Stav počasí: Sníh
Oblačnost: Zataženo
Dohlednost: 1 km
Detaily oblačnosti: Skoro zataženo 274 m
Zataženo 610 m
2018/12/12 12:00 LKCV 121200Z 04004KT 1300 R31/1400U SN BKN009 OVC020 00/00 Q1020 NOSIG RMK BLACK
LKNA - Náměšť n. Osl., Česká republika
Směr a vzdálenost od této stanice: JJV 154km
Aktualizováno: 12.12.2018 13:00
Nejsou aktuální data
Skoro zataženo
Skoro zataženo
 Vítr ze směru SZ
Vítr: SZ 15 km/h
Teplota: 0°C
Chlad větru: -4°C
Rosný bod: -1°C
Vlhkost: 93%
Tlak vzduchu: 1018 hPa
Oblačnost: Skoro zataženo
Dohlednost: 10 km
Detaily oblačnosti: Skoro jasno 244 m
Polojasno 762 m
Skoro zataženo 1646 m
2018/12/12 12:00 LKNA 121200Z 31008KT 9999 FEW008 SCT025 BKN054 M00/M01 Q1018 RMK GRN GRN
 
LKLN - Plzeň Líně, Česká republika
Směr a vzdálenost od této stanice: ZJZ 184km
Aktualizováno: 12.12.2018 22:00
Zataženo
Zataženo
 Vítr ze směru SSV
Vítr: SSV 7 km/h
Teplota: -1°C
Chlad větru: -4°C
Rosný bod: -2°C
Vlhkost: 93%
Tlak vzduchu: 1022 hPa
Oblačnost: Zataženo
Dohlednost: 10 km
Detaily oblačnosti: Polojasno 488 m
Skoro zataženo 1463 m
Zataženo 1981 m
2018/12/12 21:00 LKLN 122100Z AUTO 02004KT 350V070 9999 SCT016 BKN048 OVC065 M01/M02 Q1022
EDDC - Dresden Klotzsch, Německo
Směr a vzdálenost od této stanice: ZSZ 142km
Aktualizováno: 12.12.2018 22:20
Zataženo
Zataženo
 Vítr ze směru SV
Vítr: SV 13 km/h
Teplota: -1°C
Chlad větru: -6°C
Rosný bod: -1°C
Vlhkost: 100%
Tlak vzduchu: 1024 hPa
Oblačnost: Zataženo
Dohlednost: 8 km
Detaily oblačnosti: Skoro jasno 213 m
Zataženo 335 m
2018/12/12 21:20 EDDC 122120Z 05007KT 8000 FEW007 OVC011 M01/M01 Q1024